sensor_id;sensor_type;location;lat;lon;timestamp;temperature;humidity
53520;DHT22;39397;53.204;5.778;2023-07-24T00:00:43;17.40;99.90
53520;DHT22;39397;53.204;5.778;2023-07-24T00:03:09;17.40;99.90
53520;DHT22;39397;53.204;5.778;2023-07-24T00:05:34;17.40;99.90
53520;DHT22;39397;53.204;5.778;2023-07-24T00:08:00;17.40;99.90
53520;DHT22;39397;53.204;5.778;2023-07-24T00:10:25;18.70;99.90
53520;DHT22;39397;53.204;5.778;2023-07-24T00:12:51;17.40;99.90
53520;DHT22;39397;53.204;5.778;2023-07-24T00:15:17;17.40;99.90
53520;DHT22;39397;53.204;5.778;2023-07-24T00:17:43;17.40;99.90
53520;DHT22;39397;53.204;5.778;2023-07-24T00:20:10;17.40;99.90
53520;DHT22;39397;53.204;5.778;2023-07-24T00:22:35;17.30;99.90
53520;DHT22;39397;53.204;5.778;2023-07-24T00:25:01;18.10;99.90
53520;DHT22;39397;53.204;5.778;2023-07-24T00:27:27;17.30;99.90
53520;DHT22;39397;53.204;5.778;2023-07-24T00:29:53;17.30;99.90
53520;DHT22;39397;53.204;5.778;2023-07-24T00:32:18;17.20;99.90
53520;DHT22;39397;53.204;5.778;2023-07-24T00:34:44;17.20;99.90
53520;DHT22;39397;53.204;5.778;2023-07-24T00:37:09;17.40;99.90
53520;DHT22;39397;53.204;5.778;2023-07-24T00:39:35;17.30;99.90
53520;DHT22;39397;53.204;5.778;2023-07-24T00:42:01;17.40;99.90
53520;DHT22;39397;53.204;5.778;2023-07-24T00:44:26;17.40;99.90
53520;DHT22;39397;53.204;5.778;2023-07-24T00:46:52;17.30;99.90
53520;DHT22;39397;53.204;5.778;2023-07-24T00:49:18;17.30;99.90
53520;DHT22;39397;53.204;5.778;2023-07-24T00:51:44;17.30;99.90
53520;DHT22;39397;53.204;5.778;2023-07-24T00:54:10;19.20;99.90
53520;DHT22;39397;53.204;5.778;2023-07-24T00:56:36;17.20;99.90
53520;DHT22;39397;53.204;5.778;2023-07-24T00:59:02;17.30;99.90
53520;DHT22;39397;53.204;5.778;2023-07-24T01:01:28;17.00;99.90
53520;DHT22;39397;53.204;5.778;2023-07-24T01:03:54;17.10;99.90
53520;DHT22;39397;53.204;5.778;2023-07-24T01:06:22;17.10;99.90
53520;DHT22;39397;53.204;5.778;2023-07-24T01:08:47;17.00;99.90
53520;DHT22;39397;53.204;5.778;2023-07-24T01:11:18;17.00;99.90
53520;DHT22;39397;53.204;5.778;2023-07-24T01:13:48;16.90;99.90
53520;DHT22;39397;53.204;5.778;2023-07-24T01:16:16;16.90;99.90
53520;DHT22;39397;53.204;5.778;2023-07-24T01:18:43;17.00;99.90
53520;DHT22;39397;53.204;5.778;2023-07-24T01:21:10;17.00;99.90
53520;DHT22;39397;53.204;5.778;2023-07-24T01:26:15;17.40;99.90
53520;DHT22;39397;53.204;5.778;2023-07-24T01:28:41;17.10;99.90
53520;DHT22;39397;53.204;5.778;2023-07-24T01:31:07;17.00;99.90
53520;DHT22;39397;53.204;5.778;2023-07-24T01:33:33;17.00;99.90
53520;DHT22;39397;53.204;5.778;2023-07-24T01:36:01;17.10;99.90
53520;DHT22;39397;53.204;5.778;2023-07-24T01:38:27;17.30;99.90
53520;DHT22;39397;53.204;5.778;2023-07-24T01:40:54;17.20;99.90
53520;DHT22;39397;53.204;5.778;2023-07-24T01:43:19;17.10;99.90
53520;DHT22;39397;53.204;5.778;2023-07-24T01:45:45;17.10;99.90
53520;DHT22;39397;53.204;5.778;2023-07-24T01:48:11;17.20;99.90
53520;DHT22;39397;53.204;5.778;2023-07-24T01:50:36;17.10;99.90
53520;DHT22;39397;53.204;5.778;2023-07-24T01:53:02;17.10;99.90
53520;DHT22;39397;53.204;5.778;2023-07-24T01:55:27;17.10;99.90
53520;DHT22;39397;53.204;5.778;2023-07-24T01:57:53;17.10;99.90
53520;DHT22;39397;53.204;5.778;2023-07-24T02:00:18;17.10;99.90
53520;DHT22;39397;53.204;5.778;2023-07-24T02:02:44;17.20;99.90
53520;DHT22;39397;53.204;5.778;2023-07-24T02:05:10;17.00;99.90
53520;DHT22;39397;53.204;5.778;2023-07-24T02:07:35;17.30;99.90
53520;DHT22;39397;53.204;5.778;2023-07-24T02:10:01;17.00;99.90
53520;DHT22;39397;53.204;5.778;2023-07-24T02:12:27;17.20;99.90
53520;DHT22;39397;53.204;5.778;2023-07-24T02:14:52;17.10;99.90
53520;DHT22;39397;53.204;5.778;2023-07-24T02:17:18;17.20;99.90
53520;DHT22;39397;53.204;5.778;2023-07-24T02:19:44;17.20;99.90
53520;DHT22;39397;53.204;5.778;2023-07-24T02:22:10;17.30;99.90
53520;DHT22;39397;53.204;5.778;2023-07-24T02:24:36;17.20;99.90
53520;DHT22;39397;53.204;5.778;2023-07-24T02:27:01;18.10;99.90
53520;DHT22;39397;53.204;5.778;2023-07-24T02:29:27;17.30;99.90
53520;DHT22;39397;53.204;5.778;2023-07-24T02:31:53;17.30;99.90
53520;DHT22;39397;53.204;5.778;2023-07-24T02:34:19;17.50;99.90
53520;DHT22;39397;53.204;5.778;2023-07-24T02:36:49;17.40;99.90
53520;DHT22;39397;53.204;5.778;2023-07-24T02:39:15;17.30;99.90
53520;DHT22;39397;53.204;5.778;2023-07-24T02:41:41;17.30;99.90
53520;DHT22;39397;53.204;5.778;2023-07-24T02:44:06;17.40;99.90
53520;DHT22;39397;53.204;5.778;2023-07-24T02:46:32;17.40;99.90
53520;DHT22;39397;53.204;5.778;2023-07-24T02:48:57;17.40;99.90
53520;DHT22;39397;53.204;5.778;2023-07-24T02:51:23;17.30;99.90
53520;DHT22;39397;53.204;5.778;2023-07-24T02:53:48;16.00;99.90
53520;DHT22;39397;53.204;5.778;2023-07-24T02:56:14;17.40;99.90
53520;DHT22;39397;53.204;5.778;2023-07-24T02:58:39;17.40;99.90
53520;DHT22;39397;53.204;5.778;2023-07-24T03:01:05;17.40;99.90
53520;DHT22;39397;53.204;5.778;2023-07-24T03:03:35;17.30;99.90
53520;DHT22;39397;53.204;5.778;2023-07-24T03:06:01;17.30;99.90
53520;DHT22;39397;53.204;5.778;2023-07-24T03:08:27;17.40;99.90
53520;DHT22;39397;53.204;5.778;2023-07-24T03:10:52;17.20;99.90
53520;DHT22;39397;53.204;5.778;2023-07-24T03:13:18;17.30;99.90
53520;DHT22;39397;53.204;5.778;2023-07-24T03:15:51;17.30;99.90
53520;DHT22;39397;53.204;5.778;2023-07-24T03:18:16;17.30;99.90
53520;DHT22;39397;53.204;5.778;2023-07-24T03:20:42;17.40;99.90
53520;DHT22;39397;53.204;5.778;2023-07-24T03:23:07;17.30;99.90
53520;DHT22;39397;53.204;5.778;2023-07-24T03:25:34;17.40;99.90
53520;DHT22;39397;53.204;5.778;2023-07-24T03:28:01;17.30;99.90
53520;DHT22;39397;53.204;5.778;2023-07-24T03:30:26;17.40;99.90
53520;DHT22;39397;53.204;5.778;2023-07-24T03:32:52;17.40;99.90
53520;DHT22;39397;53.204;5.778;2023-07-24T03:35:17;17.40;99.90
53520;DHT22;39397;53.204;5.778;2023-07-24T03:37:43;17.60;99.90
53520;DHT22;39397;53.204;5.778;2023-07-24T03:40:09;17.40;99.90
53520;DHT22;39397;53.204;5.778;2023-07-24T03:42:34;17.40;99.90
53520;DHT22;39397;53.204;5.778;2023-07-24T03:45:00;17.40;99.90
53520;DHT22;39397;53.204;5.778;2023-07-24T03:47:25;17.40;99.90
53520;DHT22;39397;53.204;5.778;2023-07-24T03:49:51;17.40;99.90
53520;DHT22;39397;53.204;5.778;2023-07-24T03:52:17;17.40;99.90
53520;DHT22;39397;53.204;5.778;2023-07-24T03:54:42;17.40;99.90
53520;DHT22;39397;53.204;5.778;2023-07-24T03:57:08;17.40;99.90
53520;DHT22;39397;53.204;5.778;2023-07-24T03:59:33;17.30;99.90
53520;DHT22;39397;53.204;5.778;2023-07-24T04:01:59;17.30;99.90
53520;DHT22;39397;53.204;5.778;2023-07-24T04:04:25;17.40;99.90
53520;DHT22;39397;53.204;5.778;2023-07-24T04:06:50;17.40;99.90
53520;DHT22;39397;53.204;5.778;2023-07-24T04:09:16;17.50;99.90
53520;DHT22;39397;53.204;5.778;2023-07-24T04:11:44;17.30;99.90
53520;DHT22;39397;53.204;5.778;2023-07-24T04:14:10;17.40;99.90
53520;DHT22;39397;53.204;5.778;2023-07-24T04:16:36;17.50;99.90
53520;DHT22;39397;53.204;5.778;2023-07-24T04:19:02;17.40;99.90
53520;DHT22;39397;53.204;5.778;2023-07-24T04:21:27;17.50;99.90
53520;DHT22;39397;53.204;5.778;2023-07-24T04:23:53;17.40;99.90
53520;DHT22;39397;53.204;5.778;2023-07-24T04:26:19;17.40;99.90
53520;DHT22;39397;53.204;5.778;2023-07-24T04:28:44;17.30;99.90
53520;DHT22;39397;53.204;5.778;2023-07-24T04:31:10;17.30;99.90
53520;DHT22;39397;53.204;5.778;2023-07-24T04:33:35;16.90;99.90
53520;DHT22;39397;53.204;5.778;2023-07-24T04:36:01;17.40;99.90
53520;DHT22;39397;53.204;5.778;2023-07-24T04:38:26;17.50;99.90
53520;DHT22;39397;53.204;5.778;2023-07-24T04:40:52;17.40;99.90
53520;DHT22;39397;53.204;5.778;2023-07-24T04:43:17;17.60;99.90
53520;DHT22;39397;53.204;5.778;2023-07-24T04:45:43;17.50;99.90
53520;DHT22;39397;53.204;5.778;2023-07-24T04:48:09;16.40;99.90
53520;DHT22;39397;53.204;5.778;2023-07-24T04:50:34;17.60;99.90
53520;DHT22;39397;53.204;5.778;2023-07-24T04:53:00;17.60;99.90
53520;DHT22;39397;53.204;5.778;2023-07-24T04:55:25;17.60;99.90
53520;DHT22;39397;53.204;5.778;2023-07-24T04:57:51;17.50;99.90
53520;DHT22;39397;53.204;5.778;2023-07-24T05:00:17;17.60;99.90
53520;DHT22;39397;53.204;5.778;2023-07-24T05:02:42;17.70;99.90
53520;DHT22;39397;53.204;5.778;2023-07-24T05:05:08;17.70;99.90
53520;DHT22;39397;53.204;5.778;2023-07-24T05:07:34;17.80;99.90
53520;DHT22;39397;53.204;5.778;2023-07-24T05:09:59;17.60;99.90
53520;DHT22;39397;53.204;5.778;2023-07-24T05:12:25;17.60;99.90
53520;DHT22;39397;53.204;5.778;2023-07-24T05:14:51;17.50;99.90
53520;DHT22;39397;53.204;5.778;2023-07-24T05:17:16;17.80;99.90
53520;DHT22;39397;53.204;5.778;2023-07-24T05:19:42;17.70;99.90
53520;DHT22;39397;53.204;5.778;2023-07-24T05:22:07;17.70;99.90
53520;DHT22;39397;53.204;5.778;2023-07-24T05:24:36;17.70;99.90
53520;DHT22;39397;53.204;5.778;2023-07-24T05:27:02;17.70;99.90
53520;DHT22;39397;53.204;5.778;2023-07-24T05:29:27;17.80;99.90
53520;DHT22;39397;53.204;5.778;2023-07-24T05:31:53;17.70;99.90
53520;DHT22;39397;53.204;5.778;2023-07-24T05:34:18;17.70;99.90
53520;DHT22;39397;53.204;5.778;2023-07-24T05:36:44;17.80;99.90
53520;DHT22;39397;53.204;5.778;2023-07-24T05:39:09;17.90;99.90
53520;DHT22;39397;53.204;5.778;2023-07-24T05:41:35;17.90;99.90
53520;DHT22;39397;53.204;5.778;2023-07-24T05:44:01;18.20;99.90
53520;DHT22;39397;53.204;5.778;2023-07-24T05:46:26;17.40;99.90
53520;DHT22;39397;53.204;5.778;2023-07-24T05:48:52;18.30;99.90
53520;DHT22;39397;53.204;5.778;2023-07-24T05:51:17;18.20;99.90
53520;DHT22;39397;53.204;5.778;2023-07-24T05:53:43;18.30;99.90
53520;DHT22;39397;53.204;5.778;2023-07-24T05:56:09;18.50;99.90
53520;DHT22;39397;53.204;5.778;2023-07-24T05:58:34;18.30;99.90
53520;DHT22;39397;53.204;5.778;2023-07-24T06:01:00;18.60;99.90
53520;DHT22;39397;53.204;5.778;2023-07-24T06:03:25;18.80;99.90
53520;DHT22;39397;53.204;5.778;2023-07-24T06:05:51;18.80;99.90
53520;DHT22;39397;53.204;5.778;2023-07-24T06:08:18;18.80;99.90
53520;DHT22;39397;53.204;5.778;2023-07-24T06:10:45;20.00;99.90
53520;DHT22;39397;53.204;5.778;2023-07-24T06:13:11;19.00;99.90
53520;DHT22;39397;53.204;5.778;2023-07-24T06:15:37;19.10;99.90
53520;DHT22;39397;53.204;5.778;2023-07-24T06:18:02;19.20;99.90
53520;DHT22;39397;53.204;5.778;2023-07-24T06:20:28;19.20;99.90
53520;DHT22;39397;53.204;5.778;2023-07-24T06:22:53;20.30;99.90
53520;DHT22;39397;53.204;5.778;2023-07-24T06:25:19;19.30;99.90
53520;DHT22;39397;53.204;5.778;2023-07-24T06:27:44;19.40;99.90
53520;DHT22;39397;53.204;5.778;2023-07-24T06:30:10;19.20;99.90
53520;DHT22;39397;53.204;5.778;2023-07-24T06:32:35;19.20;99.90
53520;DHT22;39397;53.204;5.778;2023-07-24T06:35:01;19.30;99.90
53520;DHT22;39397;53.204;5.778;2023-07-24T06:37:27;19.30;99.90
53520;DHT22;39397;53.204;5.778;2023-07-24T06:39:52;19.30;99.90
53520;DHT22;39397;53.204;5.778;2023-07-24T06:42:18;19.30;99.90
53520;DHT22;39397;53.204;5.778;2023-07-24T06:44:43;19.40;99.90
53520;DHT22;39397;53.204;5.778;2023-07-24T06:47:09;19.30;99.90
53520;DHT22;39397;53.204;5.778;2023-07-24T06:49:35;19.50;99.90
53520;DHT22;39397;53.204;5.778;2023-07-24T06:52:01;19.50;99.90
53520;DHT22;39397;53.204;5.778;2023-07-24T06:54:26;19.40;99.90
53520;DHT22;39397;53.204;5.778;2023-07-24T06:56:52;19.50;99.90
53520;DHT22;39397;53.204;5.778;2023-07-24T06:59:18;19.50;99.90
53520;DHT22;39397;53.204;5.778;2023-07-24T07:01:43;19.50;99.90
53520;DHT22;39397;53.204;5.778;2023-07-24T07:04:09;19.70;99.90
53520;DHT22;39397;53.204;5.778;2023-07-24T07:06:34;19.60;99.90
53520;DHT22;39397;53.204;5.778;2023-07-24T07:09:00;19.60;99.90
53520;DHT22;39397;53.204;5.778;2023-07-24T07:11:26;19.80;99.90
53520;DHT22;39397;53.204;5.778;2023-07-24T07:13:51;19.80;99.90
53520;DHT22;39397;53.204;5.778;2023-07-24T07:16:17;19.90;99.90
53520;DHT22;39397;53.204;5.778;2023-07-24T07:18:44;20.10;99.90
53520;DHT22;39397;53.204;5.778;2023-07-24T07:21:10;20.20;99.90
53520;DHT22;39397;53.204;5.778;2023-07-24T07:23:35;20.10;99.90
53520;DHT22;39397;53.204;5.778;2023-07-24T07:26:01;20.10;99.90
53520;DHT22;39397;53.204;5.778;2023-07-24T07:28:27;20.20;99.90
53520;DHT22;39397;53.204;5.778;2023-07-24T07:30:53;20.30;99.90
53520;DHT22;39397;53.204;5.778;2023-07-24T07:33:19;20.30;99.90
53520;DHT22;39397;53.204;5.778;2023-07-24T07:35:47;20.40;99.90
53520;DHT22;39397;53.204;5.778;2023-07-24T07:38:12;20.50;99.90
53520;DHT22;39397;53.204;5.778;2023-07-24T07:40:38;20.30;99.90
53520;DHT22;39397;53.204;5.778;2023-07-24T07:43:04;20.40;99.90
53520;DHT22;39397;53.204;5.778;2023-07-24T07:45:30;20.20;99.90
53520;DHT22;39397;53.204;5.778;2023-07-24T07:47:55;20.40;99.90
53520;DHT22;39397;53.204;5.778;2023-07-24T07:50:21;20.10;99.90
53520;DHT22;39397;53.204;5.778;2023-07-24T07:52:50;20.10;99.90
53520;DHT22;39397;53.204;5.778;2023-07-24T07:55:17;20.00;99.90
53520;DHT22;39397;53.204;5.778;2023-07-24T07:57:43;20.10;99.90
53520;DHT22;39397;53.204;5.778;2023-07-24T08:00:09;20.10;99.90
53520;DHT22;39397;53.204;5.778;2023-07-24T08:02:35;20.30;99.90
53520;DHT22;39397;53.204;5.778;2023-07-24T08:05:00;20.50;99.90
53520;DHT22;39397;53.204;5.778;2023-07-24T08:07:26;20.40;99.90
53520;DHT22;39397;53.204;5.778;2023-07-24T08:09:51;22.90;99.90
53520;DHT22;39397;53.204;5.778;2023-07-24T08:12:17;20.60;99.90
53520;DHT22;39397;53.204;5.778;2023-07-24T08:14:43;20.70;99.90
53520;DHT22;39397;53.204;5.778;2023-07-24T08:17:08;21.10;99.90
53520;DHT22;39397;53.204;5.778;2023-07-24T08:19:34;21.30;99.90
53520;DHT22;39397;53.204;5.778;2023-07-24T08:21:59;21.50;99.90
53520;DHT22;39397;53.204;5.778;2023-07-24T08:24:25;21.50;99.90
53520;DHT22;39397;53.204;5.778;2023-07-24T08:26:51;21.50;99.90
53520;DHT22;39397;53.204;5.778;2023-07-24T08:29:16;21.20;99.90
53520;DHT22;39397;53.204;5.778;2023-07-24T08:31:42;20.90;99.90
53520;DHT22;39397;53.204;5.778;2023-07-24T08:34:07;20.60;99.90
53520;DHT22;39397;53.204;5.778;2023-07-24T08:36:33;20.50;99.90
53520;DHT22;39397;53.204;5.778;2023-07-24T08:38:59;20.10;99.90
53520;DHT22;39397;53.204;5.778;2023-07-24T08:41:24;20.00;99.90
53520;DHT22;39397;53.204;5.778;2023-07-24T08:43:50;19.70;99.90
53520;DHT22;39397;53.204;5.778;2023-07-24T08:46:17;19.60;99.90
53520;DHT22;39397;53.204;5.778;2023-07-24T08:48:43;19.40;99.90
53520;DHT22;39397;53.204;5.778;2023-07-24T08:51:09;19.30;99.90
53520;DHT22;39397;53.204;5.778;2023-07-24T08:53:36;19.20;99.90
53520;DHT22;39397;53.204;5.778;2023-07-24T08:56:03;19.00;99.90
53520;DHT22;39397;53.204;5.778;2023-07-24T08:58:28;19.00;99.90
53520;DHT22;39397;53.204;5.778;2023-07-24T09:00:55;18.90;99.90
53520;DHT22;39397;53.204;5.778;2023-07-24T09:03:21;19.10;99.90
53520;DHT22;39397;53.204;5.778;2023-07-24T09:05:47;19.20;99.90
53520;DHT22;39397;53.204;5.778;2023-07-24T09:08:12;19.50;99.90
53520;DHT22;39397;53.204;5.778;2023-07-24T09:10:38;19.80;99.90
53520;DHT22;39397;53.204;5.778;2023-07-24T09:13:04;20.00;99.90
53520;DHT22;39397;53.204;5.778;2023-07-24T09:15:39;20.30;99.90
53520;DHT22;39397;53.204;5.778;2023-07-24T09:18:04;20.20;99.90
53520;DHT22;39397;53.204;5.778;2023-07-24T09:20:37;20.30;99.90
53520;DHT22;39397;53.204;5.778;2023-07-24T09:23:03;20.40;99.90
53520;DHT22;39397;53.204;5.778;2023-07-24T09:25:32;20.50;99.90
53520;DHT22;39397;53.204;5.778;2023-07-24T09:28:01;20.50;99.90
53520;DHT22;39397;53.204;5.778;2023-07-24T09:30:26;20.50;99.90
53520;DHT22;39397;53.204;5.778;2023-07-24T09:32:52;20.70;99.90
53520;DHT22;39397;53.204;5.778;2023-07-24T09:35:18;20.60;99.90
53520;DHT22;39397;53.204;5.778;2023-07-24T09:37:44;20.70;99.90
53520;DHT22;39397;53.204;5.778;2023-07-24T09:40:11;20.80;99.90
53520;DHT22;39397;53.204;5.778;2023-07-24T09:42:37;21.00;99.90
53520;DHT22;39397;53.204;5.778;2023-07-24T09:45:03;21.00;99.90
53520;DHT22;39397;53.204;5.778;2023-07-24T09:47:29;21.00;99.90
53520;DHT22;39397;53.204;5.778;2023-07-24T09:49:55;21.20;99.90
53520;DHT22;39397;53.204;5.778;2023-07-24T09:52:21;21.10;99.90
53520;DHT22;39397;53.204;5.778;2023-07-24T09:54:59;21.30;99.90
53520;DHT22;39397;53.204;5.778;2023-07-24T09:57:25;21.40;99.90
53520;DHT22;39397;53.204;5.778;2023-07-24T09:59:51;21.50;99.90
53520;DHT22;39397;53.204;5.778;2023-07-24T10:02:19;21.20;99.90
53520;DHT22;39397;53.204;5.778;2023-07-24T10:04:45;21.60;99.90
53520;DHT22;39397;53.204;5.778;2023-07-24T10:07:11;21.60;99.90
53520;DHT22;39397;53.204;5.778;2023-07-24T10:09:38;21.40;99.90
53520;DHT22;39397;53.204;5.778;2023-07-24T10:12:04;21.40;99.90
53520;DHT22;39397;53.204;5.778;2023-07-24T10:14:30;21.40;99.90
53520;DHT22;39397;53.204;5.778;2023-07-24T10:16:56;21.40;99.90
53520;DHT22;39397;53.204;5.778;2023-07-24T10:19:22;21.40;99.90
53520;DHT22;39397;53.204;5.778;2023-07-24T10:21:48;21.70;99.90
53520;DHT22;39397;53.204;5.778;2023-07-24T10:24:15;21.10;99.90
53520;DHT22;39397;53.204;5.778;2023-07-24T10:26:40;21.30;99.90
53520;DHT22;39397;53.204;5.778;2023-07-24T10:29:06;21.10;99.90
53520;DHT22;39397;53.204;5.778;2023-07-24T10:31:32;21.20;99.90
53520;DHT22;39397;53.204;5.778;2023-07-24T10:34:04;21.20;99.90
53520;DHT22;39397;53.204;5.778;2023-07-24T10:36:33;21.60;99.90
53520;DHT22;39397;53.204;5.778;2023-07-24T10:38:59;21.50;99.90
53520;DHT22;39397;53.204;5.778;2023-07-24T10:41:34;21.70;99.90
53520;DHT22;39397;53.204;5.778;2023-07-24T10:44:01;21.90;99.90
53520;DHT22;39397;53.204;5.778;2023-07-24T10:46:35;22.20;99.90
53520;DHT22;39397;53.204;5.778;2023-07-24T10:49:01;22.30;99.90
53520;DHT22;39397;53.204;5.778;2023-07-24T10:51:29;22.20;99.90
53520;DHT22;39397;53.204;5.778;2023-07-24T10:53:54;22.50;99.90
53520;DHT22;39397;53.204;5.778;2023-07-24T10:56:20;22.60;99.90
53520;DHT22;39397;53.204;5.778;2023-07-24T10:58:46;22.70;99.90
53520;DHT22;39397;53.204;5.778;2023-07-24T11:01:11;22.70;99.90
53520;DHT22;39397;53.204;5.778;2023-07-24T11:03:37;22.60;99.90
53520;DHT22;39397;53.204;5.778;2023-07-24T11:06:03;22.40;99.90
53520;DHT22;39397;53.204;5.778;2023-07-24T11:08:29;22.70;99.90
53520;DHT22;39397;53.204;5.778;2023-07-24T11:10:55;23.50;99.90
53520;DHT22;39397;53.204;5.778;2023-07-24T11:13:23;22.30;99.90
53520;DHT22;39397;53.204;5.778;2023-07-24T11:15:49;22.40;99.90
53520;DHT22;39397;53.204;5.778;2023-07-24T11:18:15;22.30;99.90
53520;DHT22;39397;53.204;5.778;2023-07-24T11:20:51;22.10;99.90
53520;DHT22;39397;53.204;5.778;2023-07-24T11:23:17;22.20;99.90
53520;DHT22;39397;53.204;5.778;2023-07-24T11:25:43;22.20;99.90
53520;DHT22;39397;53.204;5.778;2023-07-24T11:28:10;22.10;99.90
53520;DHT22;39397;53.204;5.778;2023-07-24T11:30:35;21.90;99.90
53520;DHT22;39397;53.204;5.778;2023-07-24T11:33:05;23.90;99.90
53520;DHT22;39397;53.204;5.778;2023-07-24T11:35:31;22.00;99.90
53520;DHT22;39397;53.204;5.778;2023-07-24T11:37:56;22.30;99.90
53520;DHT22;39397;53.204;5.778;2023-07-24T11:40:30;22.50;99.90
53520;DHT22;39397;53.204;5.778;2023-07-24T11:42:56;22.20;99.90
53520;DHT22;39397;53.204;5.778;2023-07-24T11:45:22;22.40;99.90
53520;DHT22;39397;53.204;5.778;2023-07-24T11:47:48;22.40;99.90
53520;DHT22;39397;53.204;5.778;2023-07-24T11:50:14;22.70;99.90
53520;DHT22;39397;53.204;5.778;2023-07-24T11:52:41;22.80;99.90
53520;DHT22;39397;53.204;5.778;2023-07-24T11:55:09;22.60;99.90
53520;DHT22;39397;53.204;5.778;2023-07-24T11:57:35;22.60;99.90
53520;DHT22;39397;53.204;5.778;2023-07-24T12:00:01;22.50;99.90
53520;DHT22;39397;53.204;5.778;2023-07-24T12:02:27;22.30;99.90
53520;DHT22;39397;53.204;5.778;2023-07-24T12:04:55;22.20;99.90
53520;DHT22;39397;53.204;5.778;2023-07-24T12:07:23;22.20;99.90
53520;DHT22;39397;53.204;5.778;2023-07-24T12:09:52;21.90;99.90
53520;DHT22;39397;53.204;5.778;2023-07-24T12:12:18;21.90;99.90
53520;DHT22;39397;53.204;5.778;2023-07-24T12:14:43;21.50;99.90
53520;DHT22;39397;53.204;5.778;2023-07-24T12:17:09;21.40;99.90
53520;DHT22;39397;53.204;5.778;2023-07-24T12:19:38;21.20;99.90
53520;DHT22;39397;53.204;5.778;2023-07-24T12:22:03;21.00;99.90
53520;DHT22;39397;53.204;5.778;2023-07-24T12:24:29;20.90;99.90
53520;DHT22;39397;53.204;5.778;2023-07-24T12:26:55;20.90;99.90
53520;DHT22;39397;53.204;5.778;2023-07-24T12:29:20;20.80;99.90
53520;DHT22;39397;53.204;5.778;2023-07-24T12:31:46;20.80;99.90
53520;DHT22;39397;53.204;5.778;2023-07-24T12:34:12;20.80;99.90
53520;DHT22;39397;53.204;5.778;2023-07-24T12:36:37;20.80;99.90
53520;DHT22;39397;53.204;5.778;2023-07-24T12:39:03;20.80;99.90
53520;DHT22;39397;53.204;5.778;2023-07-24T12:41:28;20.70;99.90
53520;DHT22;39397;53.204;5.778;2023-07-24T12:43:54;20.70;99.90
53520;DHT22;39397;53.204;5.778;2023-07-24T12:46:19;20.60;99.90
53520;DHT22;39397;53.204;5.778;2023-07-24T12:48:45;20.80;99.90
53520;DHT22;39397;53.204;5.778;2023-07-24T12:51:11;20.70;99.90
53520;DHT22;39397;53.204;5.778;2023-07-24T12:53:36;20.70;99.90
53520;DHT22;39397;53.204;5.778;2023-07-24T12:56:02;20.70;99.90
53520;DHT22;39397;53.204;5.778;2023-07-24T12:58:27;20.70;99.90
53520;DHT22;39397;53.204;5.778;2023-07-24T13:00:53;20.70;99.90
53520;DHT22;39397;53.204;5.778;2023-07-24T13:03:19;20.60;99.90
53520;DHT22;39397;53.204;5.778;2023-07-24T13:05:44;20.70;99.90
53520;DHT22;39397;53.204;5.778;2023-07-24T13:08:10;20.40;99.90
53520;DHT22;39397;53.204;5.778;2023-07-24T13:10:36;20.40;99.90
53520;DHT22;39397;53.204;5.778;2023-07-24T13:13:02;20.50;99.90
53520;DHT22;39397;53.204;5.778;2023-07-24T13:15:27;20.50;99.90
53520;DHT22;39397;53.204;5.778;2023-07-24T13:17:54;20.10;99.90
53520;DHT22;39397;53.204;5.778;2023-07-24T13:20:20;20.10;99.90
53520;DHT22;39397;53.204;5.778;2023-07-24T13:22:46;21.10;99.90
53520;DHT22;39397;53.204;5.778;2023-07-24T13:25:14;19.80;99.90
53520;DHT22;39397;53.204;5.778;2023-07-24T13:27:39;19.70;99.90
53520;DHT22;39397;53.204;5.778;2023-07-24T13:30:05;19.60;99.90
53520;DHT22;39397;53.204;5.778;2023-07-24T13:32:30;19.30;99.90
53520;DHT22;39397;53.204;5.778;2023-07-24T13:34:56;19.00;99.90
53520;DHT22;39397;53.204;5.778;2023-07-24T13:37:22;18.90;99.90
53520;DHT22;39397;53.204;5.778;2023-07-24T13:39:50;18.90;99.90
53520;DHT22;39397;53.204;5.778;2023-07-24T13:42:16;18.60;99.90
53520;DHT22;39397;53.204;5.778;2023-07-24T13:44:41;18.50;99.90
53520;DHT22;39397;53.204;5.778;2023-07-24T13:47:13;18.30;99.90
53520;DHT22;39397;53.204;5.778;2023-07-24T13:49:38;18.10;99.90
53520;DHT22;39397;53.204;5.778;2023-07-24T13:52:04;18.10;99.90
53520;DHT22;39397;53.204;5.778;2023-07-24T13:54:30;17.60;99.90
53520;DHT22;39397;53.204;5.778;2023-07-24T13:56:55;17.70;99.90
53520;DHT22;39397;53.204;5.778;2023-07-24T13:59:21;17.60;99.90
53520;DHT22;39397;53.204;5.778;2023-07-24T14:01:46;17.50;99.90
53520;DHT22;39397;53.204;5.778;2023-07-24T14:04:12;17.50;99.90
53520;DHT22;39397;53.204;5.778;2023-07-24T14:06:39;17.50;99.90
53520;DHT22;39397;53.204;5.778;2023-07-24T14:09:05;17.50;99.90
53520;DHT22;39397;53.204;5.778;2023-07-24T14:11:30;17.20;99.90
53520;DHT22;39397;53.204;5.778;2023-07-24T14:13:56;17.30;99.90
53520;DHT22;39397;53.204;5.778;2023-07-24T14:16:22;17.30;99.90
53520;DHT22;39397;53.204;5.778;2023-07-24T14:18:47;17.10;99.90
53520;DHT22;39397;53.204;5.778;2023-07-24T14:21:13;17.10;99.90
53520;DHT22;39397;53.204;5.778;2023-07-24T14:23:38;17.10;99.90
53520;DHT22;39397;53.204;5.778;2023-07-24T14:26:04;17.00;99.90
53520;DHT22;39397;53.204;5.778;2023-07-24T14:28:29;17.20;99.90
53520;DHT22;39397;53.204;5.778;2023-07-24T14:30:55;17.10;99.90
53520;DHT22;39397;53.204;5.778;2023-07-24T14:33:20;17.00;99.90
53520;DHT22;39397;53.204;5.778;2023-07-24T14:35:47;17.00;99.90
53520;DHT22;39397;53.204;5.778;2023-07-24T14:38:13;17.20;99.90
53520;DHT22;39397;53.204;5.778;2023-07-24T14:40:39;17.00;99.90
53520;DHT22;39397;53.204;5.778;2023-07-24T14:43:05;17.10;99.90
53520;DHT22;39397;53.204;5.778;2023-07-24T14:45:30;17.10;99.90
53520;DHT22;39397;53.204;5.778;2023-07-24T14:47:56;17.30;99.90
53520;DHT22;39397;53.204;5.778;2023-07-24T14:50:21;17.20;99.90
53520;DHT22;39397;53.204;5.778;2023-07-24T14:52:47;17.10;99.90
53520;DHT22;39397;53.204;5.778;2023-07-24T14:55:14;17.10;99.90
53520;DHT22;39397;53.204;5.778;2023-07-24T14:57:39;17.10;99.90
53520;DHT22;39397;53.204;5.778;2023-07-24T15:00:05;16.80;99.90
53520;DHT22;39397;53.204;5.778;2023-07-24T15:02:31;16.80;99.90
53520;DHT22;39397;53.204;5.778;2023-07-24T15:04:58;16.70;99.90
53520;DHT22;39397;53.204;5.778;2023-07-24T15:07:26;16.60;99.90
53520;DHT22;39397;53.204;5.778;2023-07-24T15:09:52;16.70;99.90
53520;DHT22;39397;53.204;5.778;2023-07-24T15:12:18;16.70;99.90
53520;DHT22;39397;53.204;5.778;2023-07-24T15:14:43;16.80;99.90
53520;DHT22;39397;53.204;5.778;2023-07-24T15:17:09;16.10;99.90
53520;DHT22;39397;53.204;5.778;2023-07-24T15:19:34;16.70;99.90
53520;DHT22;39397;53.204;5.778;2023-07-24T15:22:00;16.90;99.90
53520;DHT22;39397;53.204;5.778;2023-07-24T15:24:25;16.80;99.90